sensor_id;sensor_type;location;lat;lon;timestamp;temperature;humidity
76897;SHT30;65856;52.178;21.176;2023-02-28T00:00:20;-1.83;65.25
76897;SHT30;65856;52.178;21.176;2023-02-28T00:02:51;-1.85;65.30
76897;SHT30;65856;52.178;21.176;2023-02-28T00:05:22;-1.88;65.30
76897;SHT30;65856;52.178;21.176;2023-02-28T00:07:54;-1.92;65.32
76897;SHT30;65856;52.178;21.176;2023-02-28T00:10:26;-1.95;65.40
76897;SHT30;65856;52.178;21.176;2023-02-28T00:13:00;-1.97;65.41
76897;SHT30;65856;52.178;21.176;2023-02-28T00:15:34;-2.01;65.48
76897;SHT30;65856;52.178;21.176;2023-02-28T00:18:04;-1.99;65.60
76897;SHT30;65856;52.178;21.176;2023-02-28T00:20:35;-1.97;65.59
76897;SHT30;65856;52.178;21.176;2023-02-28T00:23:07;-1.97;65.50
76897;SHT30;65856;52.178;21.176;2023-02-28T00:25:38;-1.99;65.50
76897;SHT30;65856;52.178;21.176;2023-02-28T00:28:09;-2.00;65.44
76897;SHT30;65856;52.178;21.176;2023-02-28T00:30:40;-2.01;65.50
76897;SHT30;65856;52.178;21.176;2023-02-28T00:33:11;-2.04;65.47
76897;SHT30;65856;52.178;21.176;2023-02-28T00:35:42;-2.11;65.49
76897;SHT30;65856;52.178;21.176;2023-02-28T00:38:14;-2.11;65.59
76897;SHT30;65856;52.178;21.176;2023-02-28T00:40:45;-2.10;65.61
76897;SHT30;65856;52.178;21.176;2023-02-28T00:43:16;-2.11;65.69
76897;SHT30;65856;52.178;21.176;2023-02-28T00:45:47;-2.09;65.70
76897;SHT30;65856;52.178;21.176;2023-02-28T00:48:18;-2.14;65.73
76897;SHT30;65856;52.178;21.176;2023-02-28T00:50:49;-2.20;65.89
76897;SHT30;65856;52.178;21.176;2023-02-28T00:53:20;-2.23;65.80
76897;SHT30;65856;52.178;21.176;2023-02-28T00:55:51;-2.24;65.80
76897;SHT30;65856;52.178;21.176;2023-02-28T00:58:21;-2.24;65.82
76897;SHT30;65856;52.178;21.176;2023-02-28T01:00:53;-2.25;65.90
76897;SHT30;65856;52.178;21.176;2023-02-28T01:03:24;-2.26;65.90
76897;SHT30;65856;52.178;21.176;2023-02-28T01:05:55;-2.29;66.01
76897;SHT30;65856;52.178;21.176;2023-02-28T01:08:26;-2.34;66.00
76897;SHT30;65856;52.178;21.176;2023-02-28T01:10:57;-2.40;65.85
76897;SHT30;65856;52.178;21.176;2023-02-28T01:13:37;-2.43;66.07
76897;SHT30;65856;52.178;21.176;2023-02-28T01:16:08;-2.44;66.12
76897;SHT30;65856;52.178;21.176;2023-02-28T01:18:40;-2.48;66.20
76897;SHT30;65856;52.178;21.176;2023-02-28T01:21:11;-2.53;66.14
76897;SHT30;65856;52.178;21.176;2023-02-28T01:23:44;-2.59;66.02
76897;SHT30;65856;52.178;21.176;2023-02-28T01:26:17;-2.65;66.18
76897;SHT30;65856;52.178;21.176;2023-02-28T01:28:50;-2.68;66.21
76897;SHT30;65856;52.178;21.176;2023-02-28T01:31:22;-2.72;66.26
76897;SHT30;65856;52.178;21.176;2023-02-28T01:33:51;-2.74;66.41
76897;SHT30;65856;52.178;21.176;2023-02-28T01:36:23;-2.76;66.48
76897;SHT30;65856;52.178;21.176;2023-02-28T01:38:54;-2.79;66.46
76897;SHT30;65856;52.178;21.176;2023-02-28T01:41:25;-2.78;66.58
76897;SHT30;65856;52.178;21.176;2023-02-28T01:44:00;-2.77;66.57
76897;SHT30;65856;52.178;21.176;2023-02-28T01:46:35;-2.78;66.50
76897;SHT30;65856;52.178;21.176;2023-02-28T01:49:07;-2.80;66.51
76897;SHT30;65856;52.178;21.176;2023-02-28T01:51:43;-2.81;66.62
76897;SHT30;65856;52.178;21.176;2023-02-28T01:54:18;-2.78;66.65
76897;SHT30;65856;52.178;21.176;2023-02-28T01:56:54;-2.75;66.60
76897;SHT30;65856;52.178;21.176;2023-02-28T01:59:29;-2.77;66.74
76897;SHT30;65856;52.178;21.176;2023-02-28T02:02:06;-2.76;66.64
76897;SHT30;65856;52.178;21.176;2023-02-28T02:04:39;-2.75;66.57
76897;SHT30;65856;52.178;21.176;2023-02-28T02:07:18;-2.77;66.55
76897;SHT30;65856;52.178;21.176;2023-02-28T02:09:56;-2.79;66.66
76897;SHT30;65856;52.178;21.176;2023-02-28T02:12:35;-2.79;66.79
76897;SHT30;65856;52.178;21.176;2023-02-28T02:15:26;-2.81;66.71
76897;SHT30;65856;52.178;21.176;2023-02-28T02:18:01;-2.84;66.79
76897;SHT30;65856;52.178;21.176;2023-02-28T02:20:46;-2.88;66.82
76897;SHT30;65856;52.178;21.176;2023-02-28T02:24:00;-2.94;66.84
76897;SHT30;65856;52.178;21.176;2023-02-28T02:36:26;-3.02;66.82
76897;SHT30;65856;52.178;21.176;2023-02-28T02:39:06;-2.99;66.96
76897;SHT30;65856;52.178;21.176;2023-02-28T02:41:47;-2.95;66.84
76897;SHT30;65856;52.178;21.176;2023-02-28T02:44:22;-2.94;66.73
76897;SHT30;65856;52.178;21.176;2023-02-28T02:46:59;-2.94;66.60
76897;SHT30;65856;52.178;21.176;2023-02-28T02:49:36;-2.94;66.57
76897;SHT30;65856;52.178;21.176;2023-02-28T02:52:11;-2.95;66.50
76897;SHT30;65856;52.178;21.176;2023-02-28T02:54:49;-2.97;66.36
76897;SHT30;65856;52.178;21.176;2023-02-28T02:57:25;-3.01;66.40
76897;SHT30;65856;52.178;21.176;2023-02-28T03:00:03;-3.01;66.70
76897;SHT30;65856;52.178;21.176;2023-02-28T03:02:39;-3.04;66.62
76897;SHT30;65856;52.178;21.176;2023-02-28T03:05:14;-3.10;66.59
76897;SHT30;65856;52.178;21.176;2023-02-28T03:07:47;-3.15;66.60
76897;SHT30;65856;52.178;21.176;2023-02-28T03:10:32;-3.19;66.70
76897;SHT30;65856;52.178;21.176;2023-02-28T03:13:15;-3.19;66.83
76897;SHT30;65856;52.178;21.176;2023-02-28T03:16:09;-3.24;66.88
76897;SHT30;65856;52.178;21.176;2023-02-28T03:18:58;-3.29;67.20
76897;SHT30;65856;52.178;21.176;2023-02-28T03:22:14;-3.33;67.12
76897;SHT30;65856;52.178;21.176;2023-02-28T03:24:59;-3.33;67.16
76897;SHT30;65856;52.178;21.176;2023-02-28T03:27:41;-3.31;67.17
76897;SHT30;65856;52.178;21.176;2023-02-28T03:30:17;-3.32;67.02
76897;SHT30;65856;52.178;21.176;2023-02-28T03:32:56;-3.32;67.14
76897;SHT30;65856;52.178;21.176;2023-02-28T03:35:34;-3.33;67.13
76897;SHT30;65856;52.178;21.176;2023-02-28T03:38:10;-3.29;67.28
76897;SHT30;65856;52.178;21.176;2023-02-28T03:40:48;-3.28;67.16
76897;SHT30;65856;52.178;21.176;2023-02-28T03:43:27;-3.28;67.07
76897;SHT30;65856;52.178;21.176;2023-02-28T03:46:06;-3.29;67.02
76897;SHT30;65856;52.178;21.176;2023-02-28T03:48:45;-3.31;66.73
76897;SHT30;65856;52.178;21.176;2023-02-28T03:51:26;-3.33;66.60
76897;SHT30;65856;52.178;21.176;2023-02-28T03:54:01;-3.33;66.63
76897;SHT30;65856;52.178;21.176;2023-02-28T03:56:40;-3.33;66.55
76897;SHT30;65856;52.178;21.176;2023-02-28T03:59:20;-3.36;66.33
76897;SHT30;65856;52.178;21.176;2023-02-28T04:01:57;-3.38;66.30
76897;SHT30;65856;52.178;21.176;2023-02-28T04:04:29;-3.41;66.37
76897;SHT30;65856;52.178;21.176;2023-02-28T04:07:05;-3.48;66.38
76897;SHT30;65856;52.178;21.176;2023-02-28T04:09:38;-3.53;66.42
76897;SHT30;65856;52.178;21.176;2023-02-28T04:12:09;-3.55;66.59
76897;SHT30;65856;52.178;21.176;2023-02-28T04:14:40;-3.56;66.55
76897;SHT30;65856;52.178;21.176;2023-02-28T04:17:11;-3.63;66.44
76897;SHT30;65856;52.178;21.176;2023-02-28T04:19:42;-3.70;66.54
76897;SHT30;65856;52.178;21.176;2023-02-28T04:22:13;-3.71;66.69
76897;SHT30;65856;52.178;21.176;2023-02-28T04:24:44;-3.73;66.71
76897;SHT30;65856;52.178;21.176;2023-02-28T04:27:15;-3.73;66.77
76897;SHT30;65856;52.178;21.176;2023-02-28T04:29:46;-3.72;66.80
76897;SHT30;65856;52.178;21.176;2023-02-28T04:32:17;-3.73;66.80
76897;SHT30;65856;52.178;21.176;2023-02-28T04:34:48;-3.73;66.80
76897;SHT30;65856;52.178;21.176;2023-02-28T04:37:18;-3.73;66.71
76897;SHT30;65856;52.178;21.176;2023-02-28T04:39:54;-3.74;66.77
76897;SHT30;65856;52.178;21.176;2023-02-28T04:42:25;-3.75;66.97
76897;SHT30;65856;52.178;21.176;2023-02-28T04:45:01;-3.71;67.00
76897;SHT30;65856;52.178;21.176;2023-02-28T04:47:36;-3.68;67.00
76897;SHT30;65856;52.178;21.176;2023-02-28T04:50:08;-3.72;67.08
76897;SHT30;65856;52.178;21.176;2023-02-28T04:52:40;-3.78;67.16
76897;SHT30;65856;52.178;21.176;2023-02-28T04:55:11;-3.82;67.13
76897;SHT30;65856;52.178;21.176;2023-02-28T04:57:42;-3.82;66.85
76897;SHT30;65856;52.178;21.176;2023-02-28T05:00:13;-3.82;66.65
76897;SHT30;65856;52.178;21.176;2023-02-28T05:02:45;-3.78;66.57
76897;SHT30;65856;52.178;21.176;2023-02-28T05:05:15;-3.76;66.47
76897;SHT30;65856;52.178;21.176;2023-02-28T05:07:47;-3.77;66.49
76897;SHT30;65856;52.178;21.176;2023-02-28T05:10:18;-3.76;66.49
76897;SHT30;65856;52.178;21.176;2023-02-28T05:12:48;-3.79;66.52
76897;SHT30;65856;52.178;21.176;2023-02-28T05:15:19;-3.85;66.41
76897;SHT30;65856;52.178;21.176;2023-02-28T05:17:50;-3.87;66.56
76897;SHT30;65856;52.178;21.176;2023-02-28T05:20:21;-3.84;66.67
76897;SHT30;65856;52.178;21.176;2023-02-28T05:22:52;-3.82;66.60
76897;SHT30;65856;52.178;21.176;2023-02-28T05:25:23;-3.86;66.42
76897;SHT30;65856;52.178;21.176;2023-02-28T05:27:54;-3.89;66.35
76897;SHT30;65856;52.178;21.176;2023-02-28T05:30:25;-3.89;66.59
76897;SHT30;65856;52.178;21.176;2023-02-28T05:32:56;-3.87;66.79
76897;SHT30;65856;52.178;21.176;2023-02-28T05:35:27;-3.87;66.64
76897;SHT30;65856;52.178;21.176;2023-02-28T05:37:58;-3.88;66.60
76897;SHT30;65856;52.178;21.176;2023-02-28T05:40:29;-3.90;66.60
76897;SHT30;65856;52.178;21.176;2023-02-28T05:43:00;-3.95;66.67
76897;SHT30;65856;52.178;21.176;2023-02-28T05:45:31;-3.99;66.77
76897;SHT30;65856;52.178;21.176;2023-02-28T05:48:02;-4.00;66.89
76897;SHT30;65856;52.178;21.176;2023-02-28T05:50:35;-4.05;67.14
76897;SHT30;65856;52.178;21.176;2023-02-28T05:53:06;-4.03;67.20
76897;SHT30;65856;52.178;21.176;2023-02-28T05:55:37;-4.01;67.21
76897;SHT30;65856;52.178;21.176;2023-02-28T05:58:08;-3.98;67.34
76897;SHT30;65856;52.178;21.176;2023-02-28T06:00:39;-3.90;67.49
76897;SHT30;65856;52.178;21.176;2023-02-28T06:03:10;-3.87;67.53
76897;SHT30;65856;52.178;21.176;2023-02-28T06:05:41;-3.82;67.61
76897;SHT30;65856;52.178;21.176;2023-02-28T06:08:11;-3.72;67.71
76897;SHT30;65856;52.178;21.176;2023-02-28T06:10:42;-3.61;67.70
76897;SHT30;65856;52.178;21.176;2023-02-28T06:13:13;-3.50;67.77
76897;SHT30;65856;52.178;21.176;2023-02-28T06:15:44;-3.36;67.88
76897;SHT30;65856;52.178;21.176;2023-02-28T06:18:15;-3.18;67.88
76897;SHT30;65856;52.178;21.176;2023-02-28T06:20:46;-3.02;67.84
76897;SHT30;65856;52.178;21.176;2023-02-28T06:23:23;-2.82;67.95
76897;SHT30;65856;52.178;21.176;2023-02-28T06:25:53;-2.61;67.99
76897;SHT30;65856;52.178;21.176;2023-02-28T06:28:25;-2.35;68.02
76897;SHT30;65856;52.178;21.176;2023-02-28T06:30:56;-2.08;67.85
76897;SHT30;65856;52.178;21.176;2023-02-28T06:33:27;-1.84;67.59
76897;SHT30;65856;52.178;21.176;2023-02-28T06:35:57;-1.62;67.54
76897;SHT30;65856;52.178;21.176;2023-02-28T06:38:28;-1.36;67.45
76897;SHT30;65856;52.178;21.176;2023-02-28T06:41:00;-1.07;67.32
76897;SHT30;65856;52.178;21.176;2023-02-28T06:43:33;-0.71;67.12
76897;SHT30;65856;52.178;21.176;2023-02-28T06:46:08;-0.38;66.49
76897;SHT30;65856;52.178;21.176;2023-02-28T06:48:41;-0.13;65.98
76897;SHT30;65856;52.178;21.176;2023-02-28T06:51:14;0.10;66.16
76897;SHT30;65856;52.178;21.176;2023-02-28T06:53:48;0.44;66.14
76897;SHT30;65856;52.178;21.176;2023-02-28T06:56:19;0.84;65.45
76897;SHT30;65856;52.178;21.176;2023-02-28T06:58:50;1.17;64.66
76897;SHT30;65856;52.178;21.176;2023-02-28T07:01:21;1.42;64.43
76897;SHT30;65856;52.178;21.176;2023-02-28T07:03:54;1.66;63.04
76897;SHT30;65856;52.178;21.176;2023-02-28T07:06:26;1.90;62.43
76897;SHT30;65856;52.178;21.176;2023-02-28T07:08:57;2.18;61.80
76897;SHT30;65856;52.178;21.176;2023-02-28T07:11:28;2.44;61.02
76897;SHT30;65856;52.178;21.176;2023-02-28T07:13:59;2.69;60.01
76897;SHT30;65856;52.178;21.176;2023-02-28T07:16:30;2.88;59.00
76897;SHT30;65856;52.178;21.176;2023-02-28T07:19:02;3.07;58.02
76897;SHT30;65856;52.178;21.176;2023-02-28T07:21:31;3.22;57.55
76897;SHT30;65856;52.178;21.176;2023-02-28T07:24:02;3.47;57.10
76897;SHT30;65856;52.178;21.176;2023-02-28T07:26:34;3.71;56.36
76897;SHT30;65856;52.178;21.176;2023-02-28T07:29:03;3.86;55.31
76897;SHT30;65856;52.178;21.176;2023-02-28T07:31:34;4.15;55.13
76897;SHT30;65856;52.178;21.176;2023-02-28T07:34:05;4.50;54.01
76897;SHT30;65856;52.178;21.176;2023-02-28T07:36:36;4.70;52.88
76897;SHT30;65856;52.178;21.176;2023-02-28T07:39:07;4.99;52.59
76897;SHT30;65856;52.178;21.176;2023-02-28T07:41:38;5.28;51.29
76897;SHT30;65856;52.178;21.176;2023-02-28T07:44:10;5.54;50.68
76897;SHT30;65856;52.178;21.176;2023-02-28T07:46:41;5.81;49.63
76897;SHT30;65856;52.178;21.176;2023-02-28T07:49:12;6.06;48.78
76897;SHT30;65856;52.178;21.176;2023-02-28T07:51:43;6.25;47.80
76897;SHT30;65856;52.178;21.176;2023-02-28T07:54:14;6.39;47.38
76897;SHT30;65856;52.178;21.176;2023-02-28T07:56:45;6.55;46.61
76897;SHT30;65856;52.178;21.176;2023-02-28T07:59:16;6.59;45.87
76897;SHT30;65856;52.178;21.176;2023-02-28T08:01:46;6.55;45.74
76897;SHT30;65856;52.178;21.176;2023-02-28T08:04:18;6.53;45.58
76897;SHT30;65856;52.178;21.176;2023-02-28T08:06:48;6.68;45.74
76897;SHT30;65856;52.178;21.176;2023-02-28T08:09:19;6.81;44.92
76897;SHT30;65856;52.178;21.176;2023-02-28T08:11:50;6.86;45.01
76897;SHT30;65856;52.178;21.176;2023-02-28T08:14:22;6.91;45.46
76897;SHT30;65856;52.178;21.176;2023-02-28T08:16:53;7.10;44.75
76897;SHT30;65856;52.178;21.176;2023-02-28T08:19:24;7.26;44.78
76897;SHT30;65856;52.178;21.176;2023-02-28T08:21:55;7.50;43.62
76897;SHT30;65856;52.178;21.176;2023-02-28T08:24:26;7.66;43.43
76897;SHT30;65856;52.178;21.176;2023-02-28T08:26:57;7.75;43.23
76897;SHT30;65856;52.178;21.176;2023-02-28T08:29:28;7.81;43.27
76897;SHT30;65856;52.178;21.176;2023-02-28T08:31:59;7.95;43.21
76897;SHT30;65856;52.178;21.176;2023-02-28T08:34:29;7.92;42.54
76897;SHT30;65856;52.178;21.176;2023-02-28T08:37:01;7.84;42.65
76897;SHT30;65856;52.178;21.176;2023-02-28T08:39:32;7.88;42.28
76897;SHT30;65856;52.178;21.176;2023-02-28T08:42:05;7.95;42.42
76897;SHT30;65856;52.178;21.176;2023-02-28T08:44:35;8.10;41.91
76897;SHT30;65856;52.178;21.176;2023-02-28T08:47:06;8.12;41.59
76897;SHT30;65856;52.178;21.176;2023-02-28T08:49:37;8.20;41.79
76897;SHT30;65856;52.178;21.176;2023-02-28T08:52:08;8.26;41.41
76897;SHT30;65856;52.178;21.176;2023-02-28T08:54:39;8.34;41.07
76897;SHT30;65856;52.178;21.176;2023-02-28T08:57:10;8.35;40.35
76897;SHT30;65856;52.178;21.176;2023-02-28T08:59:41;8.32;40.20
76897;SHT30;65856;52.178;21.176;2023-02-28T09:02:12;8.36;40.24
76897;SHT30;65856;52.178;21.176;2023-02-28T09:04:43;8.36;40.08
76897;SHT30;65856;52.178;21.176;2023-02-28T09:07:14;8.27;39.55
76897;SHT30;65856;52.178;21.176;2023-02-28T09:09:45;8.15;40.20
76897;SHT30;65856;52.178;21.176;2023-02-28T09:12:22;8.15;40.15
76897;SHT30;65856;52.178;21.176;2023-02-28T09:14:54;8.14;39.96
76897;SHT30;65856;52.178;21.176;2023-02-28T09:17:25;8.10;40.01
76897;SHT30;65856;52.178;21.176;2023-02-28T09:19:56;8.10;40.20
76897;SHT30;65856;52.178;21.176;2023-02-28T09:22:27;8.20;40.30
76897;SHT30;65856;52.178;21.176;2023-02-28T09:24:58;8.21;39.73
76897;SHT30;65856;52.178;21.176;2023-02-28T09:27:29;8.04;39.36
76897;SHT30;65856;52.178;21.176;2023-02-28T09:30:00;7.94;39.68
76897;SHT30;65856;52.178;21.176;2023-02-28T09:32:32;7.95;40.19
76897;SHT30;65856;52.178;21.176;2023-02-28T09:35:03;8.00;40.31
76897;SHT30;65856;52.178;21.176;2023-02-28T09:37:39;8.07;40.14
76897;SHT30;65856;52.178;21.176;2023-02-28T09:40:11;8.06;40.25
76897;SHT30;65856;52.178;21.176;2023-02-28T09:42:46;7.95;40.54
76897;SHT30;65856;52.178;21.176;2023-02-28T09:45:21;7.80;40.58
76897;SHT30;65856;52.178;21.176;2023-02-28T09:47:58;7.82;40.45
76897;SHT30;65856;52.178;21.176;2023-02-28T09:50:38;7.76;40.64
76897;SHT30;65856;52.178;21.176;2023-02-28T09:53:15;7.72;41.01
76897;SHT30;65856;52.178;21.176;2023-02-28T09:55:55;7.71;40.94
76897;SHT30;65856;52.178;21.176;2023-02-28T09:58:30;7.77;40.99
76897;SHT30;65856;52.178;21.176;2023-02-28T10:01:11;7.79;40.46
76897;SHT30;65856;52.178;21.176;2023-02-28T10:03:52;7.67;40.96
76897;SHT30;65856;52.178;21.176;2023-02-28T10:06:32;7.59;40.88
76897;SHT30;65856;52.178;21.176;2023-02-28T10:09:13;7.42;41.11
76897;SHT30;65856;52.178;21.176;2023-02-28T10:11:50;7.32;41.16
76897;SHT30;65856;52.178;21.176;2023-02-28T10:14:29;7.26;41.13
76897;SHT30;65856;52.178;21.176;2023-02-28T10:17:06;7.17;41.44
76897;SHT30;65856;52.178;21.176;2023-02-28T10:19:51;7.11;41.71
76897;SHT30;65856;52.178;21.176;2023-02-28T10:22:36;7.07;41.69
76897;SHT30;65856;52.178;21.176;2023-02-28T10:25:19;7.03;41.56
76897;SHT30;65856;52.178;21.176;2023-02-28T10:27:53;6.94;41.47
76897;SHT30;65856;52.178;21.176;2023-02-28T10:30:29;6.87;41.42
76897;SHT30;65856;52.178;21.176;2023-02-28T10:33:00;6.85;41.33
76897;SHT30;65856;52.178;21.176;2023-02-28T10:35:31;6.77;41.70
76897;SHT30;65856;52.178;21.176;2023-02-28T10:38:04;6.73;41.96
76897;SHT30;65856;52.178;21.176;2023-02-28T10:40:48;6.74;41.91
76897;SHT30;65856;52.178;21.176;2023-02-28T10:43:30;6.75;42.00
76897;SHT30;65856;52.178;21.176;2023-02-28T10:46:02;6.78;41.69
76897;SHT30;65856;52.178;21.176;2023-02-28T10:48:59;6.66;41.19
76897;SHT30;65856;52.178;21.176;2023-02-28T10:51:40;6.61;41.53
76897;SHT30;65856;52.178;21.176;2023-02-28T10:54:16;6.54;42.16
76897;SHT30;65856;52.178;21.176;2023-02-28T10:59:47;6.47;42.17
76897;SHT30;65856;52.178;21.176;2023-02-28T11:02:34;6.46;41.62
76897;SHT30;65856;52.178;21.176;2023-02-28T11:05:25;6.45;41.78
76897;SHT30;65856;52.178;21.176;2023-02-28T11:08:01;6.48;42.00
76897;SHT30;65856;52.178;21.176;2023-02-28T11:10:43;6.46;42.10
76897;SHT30;65856;52.178;21.176;2023-02-28T11:13:19;6.47;41.90
76897;SHT30;65856;52.178;21.176;2023-02-28T11:15:57;6.42;41.70
76897;SHT30;65856;52.178;21.176;2023-02-28T11:18:33;6.33;41.57
76897;SHT30;65856;52.178;21.176;2023-02-28T11:21:11;6.30;41.77
76897;SHT30;65856;52.178;21.176;2023-02-28T11:23:50;6.33;42.17
76897;SHT30;65856;52.178;21.176;2023-02-28T11:26:38;6.43;43.10
76897;SHT30;65856;52.178;21.176;2023-02-28T11:29:16;6.51;42.81
76897;SHT30;65856;52.178;21.176;2023-02-28T11:32:02;6.56;43.09
76897;SHT30;65856;52.178;21.176;2023-02-28T11:34:40;6.57;42.40
76897;SHT30;65856;52.178;21.176;2023-02-28T11:37:13;6.47;42.63
76897;SHT30;65856;52.178;21.176;2023-02-28T11:39:44;6.39;42.74
76897;SHT30;65856;52.178;21.176;2023-02-28T11:42:27;6.31;42.72
76897;SHT30;65856;52.178;21.176;2023-02-28T11:45:11;6.21;42.36
76897;SHT30;65856;52.178;21.176;2023-02-28T11:47:59;6.08;42.60
76897;SHT30;65856;52.178;21.176;2023-02-28T11:50:42;6.00;43.29
76897;SHT30;65856;52.178;21.176;2023-02-28T11:53:38;5.98;43.81
76897;SHT30;65856;52.178;21.176;2023-02-28T11:56:32;6.03;43.30
76897;SHT30;65856;52.178;21.176;2023-02-28T11:59:16;6.01;43.50
76897;SHT30;65856;52.178;21.176;2023-02-28T12:02:22;6.03;43.86
76897;SHT30;65856;52.178;21.176;2023-02-28T12:05:08;6.00;43.92
76897;SHT30;65856;52.178;21.176;2023-02-28T12:07:54;5.98;44.06
76897;SHT30;65856;52.178;21.176;2023-02-28T12:10:41;6.01;44.16
76897;SHT30;65856;52.178;21.176;2023-02-28T12:13:29;6.03;44.13
76897;SHT30;65856;52.178;21.176;2023-02-28T12:16:23;6.04;44.07
76897;SHT30;65856;52.178;21.176;2023-02-28T12:19:12;6.02;44.05
76897;SHT30;65856;52.178;21.176;2023-02-28T12:21:55;5.99;43.93
76897;SHT30;65856;52.178;21.176;2023-02-28T12:28:07;5.87;43.64
76897;SHT30;65856;52.178;21.176;2023-02-28T12:30:43;5.76;43.84
76897;SHT30;65856;52.178;21.176;2023-02-28T12:33:24;5.66;44.18
76897;SHT30;65856;52.178;21.176;2023-02-28T12:36:05;5.58;44.72
76897;SHT30;65856;52.178;21.176;2023-02-28T12:38:44;5.54;44.73
76897;SHT30;65856;52.178;21.176;2023-02-28T12:41:20;5.54;44.81
76897;SHT30;65856;52.178;21.176;2023-02-28T12:44:02;5.52;44.80
76897;SHT30;65856;52.178;21.176;2023-02-28T12:46:40;5.49;44.90
76897;SHT30;65856;52.178;21.176;2023-02-28T12:49:17;5.43;44.70
76897;SHT30;65856;52.178;21.176;2023-02-28T12:51:57;5.39;44.59
76897;SHT30;65856;52.178;21.176;2023-02-28T12:54:30;5.38;45.03
76897;SHT30;65856;52.178;21.176;2023-02-28T12:57:12;5.39;44.99
76897;SHT30;65856;52.178;21.176;2023-02-28T12:59:53;5.40;45.08
76897;SHT30;65856;52.178;21.176;2023-02-28T13:02:42;5.41;45.11
76897;SHT30;65856;52.178;21.176;2023-02-28T13:11:42;5.41;45.06
76897;SHT30;65856;52.178;21.176;2023-02-28T13:14:23;5.34;44.81
76897;SHT30;65856;52.178;21.176;2023-02-28T13:16:58;5.21;44.97
76897;SHT30;65856;52.178;21.176;2023-02-28T13:19:30;5.13;45.26
76897;SHT30;65856;52.178;21.176;2023-02-28T13:22:04;5.11;45.42
76897;SHT30;65856;52.178;21.176;2023-02-28T13:24:47;5.13;45.76
76897;SHT30;65856;52.178;21.176;2023-02-28T13:27:24;5.18;45.80
76897;SHT30;65856;52.178;21.176;2023-02-28T13:33:30;5.24;45.61
76897;SHT30;65856;52.178;21.176;2023-02-28T13:36:07;5.27;45.81
76897;SHT30;65856;52.178;21.176;2023-02-28T13:38:55;5.29;46.13
76897;SHT30;65856;52.178;21.176;2023-02-28T13:48:30;5.36;45.60
76897;SHT30;65856;52.178;21.176;2023-02-28T13:50:58;5.36;45.61
76897;SHT30;65856;52.178;21.176;2023-02-28T13:53:56;5.39;45.30
76897;SHT30;65856;52.178;21.176;2023-02-28T13:56:34;5.38;45.57
76897;SHT30;65856;52.178;21.176;2023-02-28T13:59:18;5.39;45.68
76897;SHT30;65856;52.178;21.176;2023-02-28T14:01:59;5.37;45.79
76897;SHT30;65856;52.178;21.176;2023-02-28T14:04:53;5.34;45.49
76897;SHT30;65856;52.178;21.176;2023-02-28T14:07:32;5.33;45.45
76897;SHT30;65856;52.178;21.176;2023-02-28T14:10:05;5.32;45.55
76897;SHT30;65856;52.178;21.176;2023-02-28T14:12:56;5.31;45.48
76897;SHT30;65856;52.178;21.176;2023-02-28T14:15:39;5.28;45.91
76897;SHT30;65856;52.178;21.176;2023-02-28T14:18:15;5.30;45.90
76897;SHT30;65856;52.178;21.176;2023-02-28T14:20:49;5.30;46.30
76897;SHT30;65856;52.178;21.176;2023-02-28T14:23:32;5.32;45.58
76897;SHT30;65856;52.178;21.176;2023-02-28T14:26:29;5.26;45.53
76897;SHT30;65856;52.178;21.176;2023-02-28T14:29:30;5.24;45.75
76897;SHT30;65856;52.178;21.176;2023-02-28T14:32:43;5.24;46.08
76897;SHT30;65856;52.178;21.176;2023-02-28T14:35:22;5.32;46.50
76897;SHT30;65856;52.178;21.176;2023-02-28T14:38:25;5.35;46.06
76897;SHT30;65856;52.178;21.176;2023-02-28T14:40:58;5.33;45.83
76897;SHT30;65856;52.178;21.176;2023-02-28T14:43:32;5.32;45.97
76897;SHT30;65856;52.178;21.176;2023-02-28T14:46:01;5.27;45.62
76897;SHT30;65856;52.178;21.176;2023-02-28T14:48:32;5.23;45.56
76897;SHT30;65856;52.178;21.176;2023-02-28T14:51:03;5.21;45.62
76897;SHT30;65856;52.178;21.176;2023-02-28T14:53:35;5.20;45.36
76897;SHT30;65856;52.178;21.176;2023-02-28T14:56:05;5.19;45.26
76897;SHT30;65856;52.178;21.176;2023-02-28T14:58:51;5.16;45.48
76897;SHT30;65856;52.178;21.176;2023-02-28T15:01:22;5.13;45.92
76897;SHT30;65856;52.178;21.176;2023-02-28T15:03:59;5.11;46.12
76897;SHT30;65856;52.178;21.176;2023-02-28T15:06:31;5.09;45.97
76897;SHT30;65856;52.178;21.176;2023-02-28T15:09:14;5.08;46.07
76897;SHT30;65856;52.178;21.176;2023-02-28T15:11:46;5.05;46.50
76897;SHT30;65856;52.178;21.176;2023-02-28T15:14:18;5.04;46.74
76897;SHT30;65856;52.178;21.176;2023-02-28T15:16:49;5.00;47.06
76897;SHT30;65856;52.178;21.176;2023-02-28T15:19:26;4.98;47.07
76897;SHT30;65856;52.178;21.176;2023-02-28T15:21:59;4.94;47.09
76897;SHT30;65856;52.178;21.176;2023-02-28T15:24:35;4.91;47.16
76897;SHT30;65856;52.178;21.176;2023-02-28T15:27:11;4.86;47.26
76897;SHT30;65856;52.178;21.176;2023-02-28T15:29:47;4.82;47.19
76897;SHT30;65856;52.178;21.176;2023-02-28T15:32:24;4.80;47.13
76897;SHT30;65856;52.178;21.176;2023-02-28T15:34:57;4.75;47.16
76897;SHT30;65856;52.178;21.176;2023-02-28T15:37:46;4.70;47.47
76897;SHT30;65856;52.178;21.176;2023-02-28T15:40:24;4.65;47.77
76897;SHT30;65856;52.178;21.176;2023-02-28T15:43:03;4.59;47.97
76897;SHT30;65856;52.178;21.176;2023-02-28T15:45:41;4.53;48.43
76897;SHT30;65856;52.178;21.176;2023-02-28T15:48:14;4.47;48.53
76897;SHT30;65856;52.178;21.176;2023-02-28T15:50:47;4.42;48.49
76897;SHT30;65856;52.178;21.176;2023-02-28T15:53:21;4.38;48.55
76897;SHT30;65856;52.178;21.176;2023-02-28T15:55:55;4.36;48.40
76897;SHT30;65856;52.178;21.176;2023-02-28T15:58:29;4.32;48.45
76897;SHT30;65856;52.178;21.176;2023-02-28T16:01:06;4.25;48.73
76897;SHT30;65856;52.178;21.176;2023-02-28T16:03:46;4.19;49.01
76897;SHT30;65856;52.178;21.176;2023-02-28T16:06:23;4.09;49.29
76897;SHT30;65856;52.178;21.176;2023-02-28T16:09:01;4.02;49.40
76897;SHT30;65856;52.178;21.176;2023-02-28T16:11:33;3.88;49.77
76897;SHT30;65856;52.178;21.176;2023-02-28T16:14:04;3.78;50.13
76897;SHT30;65856;52.178;21.176;2023-02-28T16:16:32;3.66;50.69
76897;SHT30;65856;52.178;21.176;2023-02-28T16:19:08;3.54;51.10
76897;SHT30;65856;52.178;21.176;2023-02-28T16:21:36;3.42;51.16
76897;SHT30;65856;52.178;21.176;2023-02-28T16:24:04;3.31;51.46
76897;SHT30;65856;52.178;21.176;2023-02-28T16:26:33;3.21;51.21
76897;SHT30;65856;52.178;21.176;2023-02-28T16:29:03;3.15;51.25
76897;SHT30;65856;52.178;21.176;2023-02-28T16:31:34;3.08;51.54
76897;SHT30;65856;52.178;21.176;2023-02-28T16:34:04;3.01;51.92
76897;SHT30;65856;52.178;21.176;2023-02-28T16:36:32;2.93;52.39
76897;SHT30;65856;52.178;21.176;2023-02-28T16:39:01;2.84;52.34
76897;SHT30;65856;52.178;21.176;2023-02-28T16:41:33;2.75;52.48
76897;SHT30;65856;52.178;21.176;2023-02-28T16:44:01;2.63;52.64
76897;SHT30;65856;52.178;21.176;2023-02-28T16:46:37;2.57;53.05
76897;SHT30;65856;52.178;21.176;2023-02-28T16:49:08;2.51;53.36